Time;durP1;ratioP1;P1;durP2;ratioP2;P2;SDS_P1;SDS_P2;PMS_P1;PMS_P2;Temp;Humidity;BMP_temperature;BMP_pressure;BME280_temperature;BME280_humidity;BME280_pressure;Samples;Min_cycle;Max_cycle;Signal;HPM_P1;HPM_P2
2023/04/23 00:00:36;;;;;;;0.80;0.80;;;;;;;13.08;100.00;100222.28;5093161;28;20284;-73
2023/04/23 00:03:08;;;;;;;0.60;0.60;;;;;;;12.86;100.00;100220.38;5074158;28;20186;-72
2023/04/23 00:05:36;;;;;;;0.70;0.70;;;;;;;12.55;100.00;100202.78;5094127;28;20201;-73
2023/04/23 00:08:04;;;;;;;0.68;0.68;;;;;;;12.76;100.00;100211.63;5093342;28;20261;-73
2023/04/23 00:10:32;;;;;;;0.98;0.98;;;;;;;12.83;100.00;100209.94;5093730;28;20201;-74
2023/04/23 00:13:00;;;;;;;0.52;0.52;;;;;;;12.84;100.00;100207.34;5093852;28;20210;-72
2023/04/23 00:15:28;;;;;;;0.60;0.60;;;;;;;12.86;100.00;100207.38;5093760;28;20285;-73
2023/04/23 00:17:54;;;;;;;0.80;0.80;;;;;;;12.85;100.00;100203.00;5093570;28;20205;-73
2023/04/23 00:20:21;;;;;;;0.60;0.60;;;;;;;12.85;100.00;100206.47;5092932;28;20225;-72
2023/04/23 00:22:48;;;;;;;0.88;0.88;;;;;;;12.80;100.00;100204.72;5092976;28;20277;-73
2023/04/23 00:25:15;;;;;;;0.70;0.70;;;;;;;12.84;100.00;100206.50;5093445;28;20665;-73
2023/04/23 00:27:43;;;;;;;0.70;0.70;;;;;;;12.85;100.00;100203.00;5093045;28;20189;-73
2023/04/23 00:30:11;;;;;;;0.80;0.80;;;;;;;12.67;100.00;100202.84;5074327;28;20226;-72
2023/04/23 00:32:38;;;;;;;0.70;0.70;;;;;;;12.63;100.00;100203.69;5092935;28;20198;-73
2023/04/23 00:35:06;;;;;;;0.60;0.60;;;;;;;12.62;100.00;100204.56;5093111;28;20206;-73
2023/04/23 00:37:32;;;;;;;0.68;0.68;;;;;;;12.58;100.00;100208.00;5055077;28;20249;-73
2023/04/23 00:39:59;;;;;;;0.60;0.60;;;;;;;12.41;100.00;100174.88;5093195;28;20198;-73
2023/04/23 00:42:27;;;;;;;0.60;0.60;;;;;;;12.47;100.00;100187.09;5093051;28;20209;-73
2023/04/23 00:44:55;;;;;;;0.60;0.60;;;;;;;12.60;100.00;100201.06;5083825;28;20210;-73
2023/04/23 00:47:23;;;;;;;0.60;0.60;;;;;;;12.46;100.00;100182.75;5083103;28;20695;-73
2023/04/23 00:49:52;;;;;;;0.80;0.80;;;;;;;12.42;100.00;100200.03;5092613;28;20214;-73
2023/04/23 00:52:18;;;;;;;0.70;0.70;;;;;;;12.39;100.00;100191.34;5092972;28;20263;-72
2023/04/23 00:54:45;;;;;;;0.70;0.70;;;;;;;12.15;100.00;100160.78;5073981;28;20194;-72
2023/04/23 00:57:12;;;;;;;0.70;0.70;;;;;;;12.29;100.00;100187.78;5092878;28;20844;-73
2023/04/23 00:59:39;;;;;;;0.70;0.70;;;;;;;12.20;100.00;100192.88;5092268;28;20205;-73
2023/04/23 01:02:07;;;;;;;0.60;0.60;;;;;;;12.14;100.00;100171.16;5092289;28;20194;-73
2023/04/23 01:04:36;;;;;;;0.57;0.57;;;;;;;12.10;100.00;100177.19;5092587;28;20678;-75
2023/04/23 01:07:03;;;;;;;0.60;0.60;;;;;;;11.85;100.00;100163.06;5091280;28;20206;-72
2023/04/23 01:09:31;;;;;;;0.80;0.80;;;;;;;11.87;100.00;100169.16;5088738;28;20226;-72
2023/04/23 01:11:59;;;;;;;0.70;0.70;;;;;;;11.65;100.00;100117.78;5092560;28;20246;-73
2023/04/23 01:14:26;;;;;;;0.80;0.80;;;;;;;11.96;100.00;100179.63;5092532;28;20582;-73
2023/04/23 01:16:53;;;;;;;0.70;0.70;;;;;;;11.96;100.00;100177.03;5092159;28;20676;-73
2023/04/23 01:19:21;;;;;;;0.65;0.65;;;;;;;11.95;100.00;100177.88;5056535;28;20202;-73
2023/04/23 01:21:50;;;;;;;0.70;0.70;;;;;;;11.92;100.00;100177.84;5092602;28;20201;-73
2023/04/23 01:24:21;;;;;;;0.80;0.80;;;;;;;11.90;100.00;100179.59;5091449;28;20214;-73
2023/04/23 01:26:48;;;;;;;0.60;0.60;;;;;;;11.80;100.00;100178.63;5072332;28;20186;-73
2023/04/23 01:29:15;;;;;;;0.60;0.60;;;;;;;11.86;100.00;100196.88;5092072;28;20738;-73
2023/04/23 01:31:43;;;;;;;0.60;0.60;;;;;;;11.87;100.00;100196.03;5072475;28;20206;-73
2023/04/23 01:34:10;;;;;;;0.70;0.70;;;;;;;11.76;100.00;100199.34;5091730;28;20202;-73
2023/04/23 01:36:38;;;;;;;0.70;0.70;;;;;;;11.70;100.00;100189.69;5091818;28;20217;-73
2023/04/23 01:39:05;;;;;;;0.75;0.75;;;;;;;11.67;100.00;100191.38;5091488;28;20198;-73
2023/04/23 01:41:33;;;;;;;0.60;0.60;;;;;;;11.57;100.00;100189.53;5073696;28;20213;-74
2023/04/23 01:44:00;;;;;;;0.70;0.70;;;;;;;11.47;100.00;100187.66;5092365;28;20198;-73
2023/04/23 01:46:27;;;;;;;0.70;0.70;;;;;;;11.40;100.00;100185.00;5091501;28;20630;-73
2023/04/23 01:48:54;;;;;;;0.60;0.60;;;;;;;11.44;100.00;100184.19;5091899;28;20245;-75
2023/04/23 01:51:22;;;;;;;0.80;0.80;;;;;;;11.36;100.00;100159.84;5092216;28;20679;-74
2023/04/23 01:53:49;;;;;;;0.70;0.70;;;;;;;11.19;100.00;100150.97;5092327;28;20668;-73
2023/04/23 01:56:16;;;;;;;0.68;0.68;;;;;;;11.37;100.00;100184.09;5091911;28;20194;-73
2023/04/23 01:58:44;;;;;;;0.60;0.60;;;;;;;11.34;100.00;100187.50;5090901;28;20206;-74
2023/04/23 02:01:11;;;;;;;0.65;0.65;;;;;;;11.22;100.00;100194.25;5091688;28;20262;-74
2023/04/23 02:03:38;;;;;;;0.60;0.60;;;;;;;11.18;100.00;100195.06;5071244;28;20260;-74
2023/04/23 02:06:05;;;;;;;0.60;0.60;;;;;;;11.16;100.00;100197.66;5091326;28;20206;-74
2023/04/23 02:08:32;;;;;;;0.70;0.70;;;;;;;11.16;100.00;100196.78;5091147;28;20259;-73
2023/04/23 02:10:59;;;;;;;0.60;0.60;;;;;;;11.10;100.00;100192.34;5091091;28;20696;-73
2023/04/23 02:13:26;;;;;;;0.70;0.70;;;;;;;11.11;100.00;100198.41;5091538;28;20645;-73
2023/04/23 02:15:54;;;;;;;0.60;0.60;;;;;;;10.99;100.00;100175.75;5091468;28;20198;-74
2023/04/23 02:18:20;;;;;;;0.80;0.80;;;;;;;11.10;100.00;100205.31;5090836;28;20646;-74
2023/04/23 02:20:47;;;;;;;0.60;0.60;;;;;;;11.08;100.00;100199.25;5091286;28;20198;-74
2023/04/23 02:23:15;;;;;;;0.70;0.70;;;;;;;11.03;100.00;100187.03;5091205;28;20271;-73
2023/04/23 02:25:42;;;;;;;0.70;0.70;;;;;;;11.10;100.00;100207.03;5091064;28;20201;-73
2023/04/23 02:28:12;;;;;;;0.80;0.80;;;;;;;11.04;100.00;100202.66;5090298;28;20190;-73
2023/04/23 02:30:44;;;;;;;0.70;0.70;;;;;;;11.02;100.00;100204.38;5090625;28;20226;-74
2023/04/23 02:33:12;;;;;;;0.70;0.70;;;;;;;11.05;100.00;100203.53;5090868;28;20281;-74
2023/04/23 02:35:38;;;;;;;0.63;0.63;;;;;;;10.90;100.00;100180.81;5090876;28;20657;-73
2023/04/23 02:38:05;;;;;;;0.70;0.70;;;;;;;11.02;100.00;100203.47;5090332;28;20631;-74
2023/04/23 02:40:32;;;;;;;0.60;0.60;;;;;;;10.90;100.00;100189.47;5091271;28;20229;-74
2023/04/23 02:42:59;;;;;;;0.70;0.70;;;;;;;10.36;100.00;100088.38;5090750;28;20592;-74
2023/04/23 02:45:25;;;;;;;0.55;0.55;;;;;;;11.08;100.00;100196.66;5090742;28;20232;-73
2023/04/23 02:47:53;;;;;;;0.70;0.70;;;;;;;10.62;100.00;100114.69;5090347;28;20194;-73
2023/04/23 02:50:21;;;;;;;0.90;0.90;;;;;;;10.82;100.00;100154.75;5090569;28;20257;-73
2023/04/23 02:52:48;;;;;;;0.60;0.60;;;;;;;11.04;100.00;100205.25;5054853;28;20221;-73
2023/04/23 02:55:15;;;;;;;0.70;0.70;;;;;;;10.99;100.00;100206.03;5090491;28;20197;-73
2023/04/23 02:57:42;;;;;;;1.30;1.30;;;;;;;10.94;100.00;100205.97;5071121;28;20187;-73
2023/04/23 03:00:11;;;;;;;0.63;0.63;;;;;;;10.99;100.00;100214.66;5070343;28;20202;-73
2023/04/23 03:02:38;;;;;;;0.70;0.70;;;;;;;10.95;100.00;100218.09;5089901;28;20198;-73
2023/04/23 03:05:06;;;;;;;0.80;0.80;;;;;;;10.84;100.00;100204.06;5088510;28;20209;-73
2023/04/23 03:07:34;;;;;;;2.05;1.95;;;;;;;10.94;100.00;100222.41;5084384;28;20210;-73
2023/04/23 03:10:01;;;;;;;0.70;0.70;;;;;;;10.89;100.00;100224.03;5089950;28;20226;-72
2023/04/23 03:12:27;;;;;;;0.60;0.60;;;;;;;10.87;100.00;100225.75;5088108;28;20198;-73
2023/04/23 03:14:54;;;;;;;0.93;0.93;;;;;;;10.85;100.00;100222.25;5086809;28;20271;-73
2023/04/23 03:17:21;;;;;;;0.65;0.65;;;;;;;10.81;100.00;100209.19;5090498;28;20205;-74
2023/04/23 03:19:48;;;;;;;0.60;0.60;;;;;;;10.88;100.00;100221.41;5090662;28;20205;-73
2023/04/23 03:22:14;;;;;;;0.70;0.70;;;;;;;10.84;100.00;100220.47;5089926;28;20210;-74
2023/04/23 03:24:43;;;;;;;0.60;0.60;;;;;;;10.86;100.00;100225.72;5090530;28;20699;-73
2023/04/23 03:27:09;;;;;;;0.60;0.60;;;;;;;10.81;100.00;100225.63;5089570;28;20251;-72
2023/04/23 03:29:36;;;;;;;0.60;0.60;;;;;;;10.80;100.00;100218.72;5090118;28;20304;-73
2023/04/23 03:32:03;;;;;;;0.70;0.70;;;;;;;10.81;100.00;100224.75;5089683;28;20198;-73
2023/04/23 03:34:30;;;;;;;0.60;0.60;;;;;;;10.93;100.00;100219.78;5090154;28;20285;-73
2023/04/23 03:36:57;;;;;;;0.60;0.60;;;;;;;10.95;100.00;100212.91;5089885;28;20206;-73
2023/04/23 03:39:23;;;;;;;0.70;0.70;;;;;;;10.97;100.00;100216.38;5089932;28;20209;-73
2023/04/23 03:41:51;;;;;;;0.70;0.70;;;;;;;11.05;100.00;100217.38;5090104;28;20206;-73
2023/04/23 03:44:18;;;;;;;0.60;0.60;;;;;;;10.94;100.00;100204.25;5090411;28;20206;-73
2023/04/23 03:46:45;;;;;;;1.65;1.13;;;;;;;11.06;100.00;100220.84;5089583;28;20233;-73
2023/04/23 03:49:12;;;;;;;0.60;0.60;;;;;;;11.24;100.00;100219.38;5090129;28;20226;-73
2023/04/23 03:51:38;;;;;;;0.70;0.70;;;;;;;11.45;100.00;100217.06;5089701;28;20202;-73
2023/04/23 03:54:05;;;;;;;0.85;0.85;;;;;;;11.79;100.00;100223.63;5089797;28;20205;-73
2023/04/23 03:56:32;;;;;;;0.60;0.60;;;;;;;12.16;100.00;100224.06;5091678;28;20209;-73
2023/04/23 03:59:00;;;;;;;0.50;0.50;;;;;;;12.58;100.00;100221.00;5093380;28;20198;-73
2023/04/23 04:01:27;;;;;;;0.50;0.50;;;;;;;13.16;100.00;100241.44;5092760;28;20198;-73
2023/04/23 04:03:54;;;;;;;0.60;0.60;;;;;;;13.55;100.00;100237.38;5093588;28;20308;-73
2023/04/23 04:06:20;;;;;;;0.60;0.60;;;;;;;14.18;100.00;100263.72;5058083;28;20202;-73
2023/04/23 04:08:47;;;;;;;0.60;0.60;;;;;;;14.70;100.00;100258.63;5074336;28;20202;-73
2023/04/23 04:11:14;;;;;;;0.50;0.50;;;;;;;15.01;100.00;100252.56;5093231;28;20237;-73
2023/04/23 04:13:41;;;;;;;0.70;0.70;;;;;;;15.48;100.00;100256.88;5092792;28;20202;-73
2023/04/23 04:16:09;;;;;;;0.60;0.60;;;;;;;15.52;100.00;100219.44;5094109;28;20194;-73
2023/04/23 04:18:38;;;;;;;0.50;0.50;;;;;;;16.08;100.00;100280.25;5057064;28;20222;-73
2023/04/23 04:21:05;;;;;;;0.70;0.70;;;;;;;16.47;100.00;100288.75;5093415;28;20190;-73
2023/04/23 04:23:32;;;;;;;0.70;0.70;;;;;;;16.61;97.45;100266.03;5092644;28;20205;-73
2023/04/23 04:25:59;;;;;;;0.70;0.70;;;;;;;17.05;97.81;100290.13;5092895;28;20249;-73
2023/04/23 04:28:26;;;;;;;1.08;1.08;;;;;;;17.03;95.95;100234.25;5092871;28;20230;-73
2023/04/23 04:30:53;;;;;;;0.70;0.70;;;;;;;17.44;92.22;100267.09;5092827;28;20225;-73
2023/04/23 04:33:22;;;;;;;0.50;0.50;;;;;;;18.01;89.66;100284.84;5092675;28;20684;-73
2023/04/23 04:35:49;;;;;;;0.60;0.60;;;;;;;18.37;86.20;100287.91;5091994;28;20205;-73
2023/04/23 04:38:17;;;;;;;0.50;0.50;;;;;;;18.41;81.46;100264.19;5092646;28;20202;-74
2023/04/23 04:40:44;;;;;;;0.50;0.50;;;;;;;18.46;81.02;100279.88;5092889;28;20229;-74
2023/04/23 04:43:11;;;;;;;0.60;0.60;;;;;;;18.79;80.33;100301.31;5093343;28;20232;-74
2023/04/23 04:45:38;;;;;;;0.50;0.50;;;;;;;18.86;78.74;100302.09;5092814;28;20226;-74
2023/04/23 04:48:04;;;;;;;0.68;0.68;;;;;;;19.01;77.16;100307.13;5093008;28;20210;-74
2023/04/23 04:50:33;;;;;;;0.70;0.70;;;;;;;19.30;78.14;100311.88;5087016;28;20233;-74
2023/04/23 04:53:00;;;;;;;0.55;0.55;;;;;;;19.33;76.25;100278.50;5092589;28;20201;-74
2023/04/23 04:55:26;;;;;;;0.50;0.50;;;;;;;19.71;74.04;100306.81;5092607;28;20678;-76
2023/04/23 04:57:54;;;;;;;0.70;0.70;;;;;;;19.73;71.44;100297.09;5073772;28;20228;-73
2023/04/23 05:00:23;;;;;;;0.50;0.50;;;;;;;20.13;70.24;100298.97;5092365;28;20201;-72
2023/04/23 05:02:51;;;;;;;0.50;0.50;;;;;;;20.48;80.35;100296.47;5089769;28;20734;-72
2023/04/23 05:05:18;;;;;;;0.50;0.50;;;;;;;20.60;68.63;100305.88;5092400;28;20291;-72
2023/04/23 05:07:46;;;;;;;0.50;0.50;;;;;;;20.27;66.53;100304.81;5091692;28;20198;-72
2023/04/23 05:10:13;;;;;;;0.50;0.50;;;;;;;20.35;67.14;100304.69;5092587;28;20229;-73
2023/04/23 05:12:41;;;;;;;0.60;0.60;;;;;;;20.93;64.01;100305.13;5091744;28;20199;-76
2023/04/23 05:15:09;;;;;;;0.50;0.50;;;;;;;20.91;63.42;100293.75;5090536;28;20251;-69
2023/04/23 05:17:36;;;;;;;1.08;1.08;;;;;;;20.67;64.50;100318.91;5091674;28;20241;-71
2023/04/23 05:20:03;;;;;;;0.57;0.57;;;;;;;20.52;66.43;100319.22;5056175;28;20209;-70
2023/04/23 05:22:30;;;;;;;0.50;0.50;;;;;;;20.80;64.77;100319.47;5056118;28;20285;-69
2023/04/23 05:24:58;;;;;;;0.65;0.65;;;;;;;20.73;63.85;100315.25;5068827;28;20207;-71
2023/04/23 05:27:25;;;;;;;0.50;0.50;;;;;;;19.25;70.49;100301.47;5086939;28;20326;-71
2023/04/23 05:29:52;;;;;;;0.70;0.70;;;;;;;19.22;73.46;100322.56;5070744;28;20229;-74
2023/04/23 05:32:19;;;;;;;0.60;0.60;;;;;;;18.97;75.15;100322.97;5091638;28;20687;-74
2023/04/23 05:34:46;;;;;;;0.60;0.60;;;;;;;18.63;76.99;100310.31;5089684;28;20198;-73
2023/04/23 05:37:12;;;;;;;0.50;0.50;;;;;;;18.40;80.44;100307.09;5091905;28;20206;-72
2023/04/23 05:39:39;;;;;;;0.50;0.50;;;;;;;17.76;85.63;100276.38;5091039;28;20634;-74
2023/04/23 05:42:07;;;;;;;0.60;0.60;;;;;;;17.92;82.78;100313.81;5091305;28;20567;-72
2023/04/23 05:44:34;;;;;;;0.60;0.60;;;;;;;18.06;100.00;100306.63;5069429;28;20233;-76
2023/04/23 05:47:01;;;;;;;0.60;0.60;;;;;;;17.82;90.75;100313.03;5091049;28;20234;-71
2023/04/23 05:49:27;;;;;;;0.60;0.60;;;;;;;17.31;90.53;100311.75;5055185;28;20206;-74
2023/04/23 05:51:54;;;;;;;2.45;1.60;;;;;;;17.28;90.99;100317.03;5090805;28;20209;-72
2023/04/23 05:54:21;;;;;;;0.60;0.60;;;;;;;16.95;92.02;100319.91;5081979;28;20295;-72
2023/04/23 05:56:48;;;;;;;0.60;0.60;;;;;;;16.71;95.09;100320.94;5090412;28;20243;-72
2023/04/23 05:59:16;;;;;;;0.60;0.60;;;;;;;16.01;100.00;100316.88;5090356;28;20225;-73
2023/04/23 06:01:43;;;;;;;0.60;0.60;;;;;;;15.58;100.00;100318.72;5078424;28;20210;-73
2023/04/23 06:04:09;;;;;;;0.60;0.60;;;;;;;15.66;100.00;100315.22;5050913;28;20201;-71
2023/04/23 06:06:36;;;;;;;1.40;1.40;;;;;;;15.98;100.00;100311.66;5085736;28;20202;-72
2023/04/23 06:09:04;;;;;;;0.55;0.55;;;;;;;15.90;100.00;100308.19;5085047;28;20210;-73
2023/04/23 06:11:32;;;;;;;0.70;0.70;;;;;;;15.89;100.00;100315.16;5087163;28;20349;-72
2023/04/23 06:13:58;;;;;;;0.60;0.60;;;;;;;16.16;100.00;100320.28;5089575;28;20287;-74
2023/04/23 06:16:26;;;;;;;0.70;0.70;;;;;;;16.64;100.00;100320.97;5091086;28;20528;-76
2023/04/23 06:18:55;;;;;;;0.90;0.90;;;;;;;16.69;100.00;100329.69;5081853;28;20222;-77
2023/04/23 06:21:22;;;;;;;1.98;1.13;;;;;;;16.51;92.90;100321.91;5090793;28;20683;-73
2023/04/23 06:23:49;;;;;;;0.60;0.60;;;;;;;16.63;94.24;100321.84;5085508;28;20216;-74
2023/04/23 06:26:16;;;;;;;0.63;0.63;;;;;;;16.36;95.03;100242.59;5091053;28;20221;-74
2023/04/23 06:28:44;;;;;;;0.70;0.70;;;;;;;16.74;90.56;100322.66;5087951;28;20205;-73
2023/04/23 06:31:11;;;;;;;0.90;0.90;;;;;;;16.71;93.73;100320.94;5085555;28;20226;-73
2023/04/23 06:33:39;;;;;;;0.60;0.60;;;;;;;16.53;90.91;100279.13;5090369;28;20190;-73
2023/04/23 06:36:09;;;;;;;0.68;0.68;;;;;;;16.89;87.83;100295.50;5085550;28;20233;-74
2023/04/23 06:38:36;;;;;;;0.70;0.70;;;;;;;17.28;88.10;100324.88;5082843;28;20201;-74
2023/04/23 06:41:03;;;;;;;0.80;0.80;;;;;;;17.24;85.56;100323.16;5086100;28;20201;-74
2023/04/23 06:43:30;;;;;;;0.70;0.70;;;;;;;16.68;80.34;100236.31;5090410;28;20190;-74
2023/04/23 06:45:57;;;;;;;0.70;0.70;;;;;;;17.16;83.94;100317.13;5082682;28;20234;-73
2023/04/23 06:48:24;;;;;;;0.70;0.70;;;;;;;17.28;82.12;100326.63;5090631;28;20202;-74
2023/04/23 06:50:54;;;;;;;0.55;0.55;;;;;;;17.04;77.14;100304.13;5084307;28;20237;-73
2023/04/23 06:53:22;;;;;;;0.60;0.60;;;;;;;17.10;78.07;100314.56;5081390;28;20202;-74
2023/04/23 06:55:50;;;;;;;0.50;0.50;;;;;;;17.45;76.15;100329.09;5049444;28;20206;-73
2023/04/23 06:58:17;;;;;;;0.60;0.60;;;;;;;17.64;75.07;100323.72;5085327;28;20202;-69
2023/04/23 07:00:44;;;;;;;0.60;0.60;;;;;;;17.09;78.24;100272.63;5089214;28;20205;-72
2023/04/23 07:03:11;;;;;;;0.60;0.60;;;;;;;17.31;81.37;100327.47;5090763;28;20425;-73
2023/04/23 07:05:38;;;;;;;0.60;0.60;;;;;;;17.28;84.07;100330.13;5089422;28;20602;-74
2023/04/23 07:08:06;;;;;;;0.70;0.70;;;;;;;17.60;79.99;100326.38;5089969;28;20206;-74
2023/04/23 07:10:33;;;;;;;0.63;0.63;;;;;;;17.71;79.60;100327.16;5089032;28;20226;-71
2023/04/23 07:12:59;;;;;;;0.50;0.50;;;;;;;17.70;76.41;100320.16;5054445;28;20640;-69
2023/04/23 07:15:27;;;;;;;0.60;0.60;;;;;;;17.94;77.74;100322.53;5089430;28;20202;-68
2023/04/23 07:17:53;;;;;;;0.60;0.60;;;;;;;18.16;77.05;100331.00;5087101;28;20209;-69
2023/04/23 07:20:20;;;;;;;0.57;0.57;;;;;;;18.04;76.87;100326.78;5080575;28;20211;-73
2023/04/23 07:22:47;;;;;;;0.47;0.47;;;;;;;17.80;76.48;100330.53;5070674;28;20201;-72
2023/04/23 07:25:15;;;;;;;0.70;0.70;;;;;;;17.52;77.32;100322.91;5085299;28;20289;-72
2023/04/23 07:27:42;;;;;;;0.57;0.57;;;;;;;17.20;79.57;100331.94;5089748;28;20213;-72
2023/04/23 07:30:10;;;;;;;0.70;0.70;;;;;;;17.38;78.82;100330.03;5084388;28;20229;-73
2023/04/23 07:32:37;;;;;;;0.60;0.60;;;;;;;17.89;92.36;100331.34;5090917;28;20206;-70
2023/04/23 07:35:04;;;;;;;0.70;0.70;;;;;;;17.64;79.18;100333.34;5089697;28;20203;-75
2023/04/23 07:37:31;;;;;;;0.60;0.60;;;;;;;17.78;80.35;100331.44;5050537;28;20292;-70
2023/04/23 07:39:58;;;;;;;0.50;0.50;;;;;;;17.48;75.60;100302.88;5092432;28;20209;-74
2023/04/23 07:42:26;;;;;;;0.77;0.77;;;;;;;17.63;74.90;100324.59;5094211;28;20213;-73
2023/04/23 07:44:52;;;;;;;0.50;0.50;;;;;;;17.62;75.27;100314.16;5092422;28;20725;-72
2023/04/23 07:47:19;;;;;;;0.50;0.50;;;;;;;17.91;73.06;100322.56;5090309;28;20218;-73
2023/04/23 07:49:46;;;;;;;0.68;0.68;;;;;;;17.99;70.45;100319.84;5055316;28;20202;-74
2023/04/23 07:52:14;;;;;;;0.60;0.60;;;;;;;17.97;71.20;100327.75;5093384;28;20271;-72
2023/04/23 07:54:41;;;;;;;0.60;0.60;;;;;;;17.53;70.37;100246.00;5091617;28;20197;-73
2023/04/23 07:57:08;;;;;;;0.60;0.60;;;;;;;18.08;68.64;100310.13;5054569;28;20206;-76
2023/04/23 07:59:37;;;;;;;0.60;0.60;;;;;;;18.45;67.92;100326.28;5090644;28;20568;-74
2023/04/23 08:02:04;;;;;;;0.50;0.50;;;;;;;18.60;69.69;100326.09;5090726;28;20658;-72
2023/04/23 08:04:31;;;;;;;0.70;0.70;;;;;;;18.75;65.96;100325.91;5087376;28;20213;-74
2023/04/23 08:06:58;;;;;;;0.60;0.60;;;;;;;18.63;60.38;100325.19;5085608;28;20624;-75
2023/04/23 08:09:25;;;;;;;0.60;0.60;;;;;;;18.68;59.62;100328.63;5084561;28;20233;-75
2023/04/23 08:11:53;;;;;;;3.65;1.80;;;;;;;18.79;56.78;100327.59;5082040;28;20303;-74
2023/04/23 08:14:20;;;;;;;0.60;0.60;;;;;;;18.77;59.39;100307.47;5092511;28;20220;-75
2023/04/23 08:16:48;;;;;;;0.60;0.60;;;;;;;18.67;57.71;100319.88;5087218;28;20226;-75
2023/04/23 08:19:15;;;;;;;0.70;0.70;;;;;;;18.86;57.57;100317.88;5090877;28;20198;-74
2023/04/23 08:21:42;;;;;;;0.60;0.60;;;;;;;18.94;58.72;100318.59;5092066;28;20203;-76
2023/04/23 08:24:09;;;;;;;0.60;0.60;;;;;;;18.87;55.76;100319.56;5093174;28;20194;-75
2023/04/23 08:26:36;;;;;;;0.70;0.70;;;;;;;18.92;49.74;100322.16;5086232;28;20289;-75
2023/04/23 08:29:04;;;;;;;0.75;0.75;;;;;;;18.70;48.60;100242.78;5093078;28;20210;-74
2023/04/23 08:31:30;;;;;;;0.50;0.50;;;;;;;19.14;46.60;100324.44;5057240;28;20250;-75
2023/04/23 08:33:59;;;;;;;0.60;0.60;;;;;;;19.25;47.11;100316.38;5093054;28;20308;-76
2023/04/23 08:36:26;;;;;;;0.60;0.60;;;;;;;19.20;45.27;100284.00;5091921;28;20206;-75
2023/04/23 08:38:53;;;;;;;0.60;0.60;;;;;;;19.17;45.51;100303.34;5092625;28;20205;-75
2023/04/23 08:41:23;;;;;;;0.60;0.60;;;;;;;19.61;45.08;100309.63;5090875;28;20198;-75
2023/04/23 08:43:53;;;;;;;3.22;1.83;;;;;;;19.58;44.46;100309.69;5092783;28;20587;-76
2023/04/23 08:46:19;;;;;;;0.70;0.70;;;;;;;19.67;44.97;100310.38;5092874;28;20237;-70
2023/04/23 08:48:51;;;;;;;0.57;0.57;;;;;;;19.86;44.22;100307.41;5092215;28;20650;-76
2023/04/23 08:51:21;;;;;;;0.50;0.50;;;;;;;19.68;44.06;100311.25;5091875;28;20552;-77
2023/04/23 08:53:52;;;;;;;0.60;0.60;;;;;;;19.84;46.39;100298.66;5077273;28;20194;-76
2023/04/23 08:56:20;;;;;;;0.60;0.60;;;;;;;19.75;45.51;100312.88;5082767;28;20202;-74
2023/04/23 08:58:48;;;;;;;0.50;0.50;;;;;;;19.93;46.75;100302.00;5086601;28;20575;-73
2023/04/23 09:01:15;;;;;;;0.50;0.50;;;;;;;19.86;45.01;100299.53;5081155;28;20202;-75
2023/04/23 09:03:42;;;;;;;0.60;0.60;;;;;;;19.97;44.66;100301.06;5087366;28;20202;-75
2023/04/23 09:06:09;;;;;;;0.63;0.63;;;;;;;20.03;44.12;100298.28;5087694;28;20206;-74
2023/04/23 09:08:38;;;;;;;0.85;0.85;;;;;;;20.06;44.18;100292.97;5092816;28;20213;-74
2023/04/23 09:11:06;;;;;;;0.60;0.60;;;;;;;20.13;43.44;100293.69;5092282;28;20238;-72
2023/04/23 09:13:34;;;;;;;0.70;0.70;;;;;;;19.93;43.63;100280.94;5091759;28;20194;-75
2023/04/23 09:16:01;;;;;;;0.52;0.52;;;;;;;19.95;43.78;100294.94;5086877;28;20259;-73
2023/04/23 09:18:28;;;;;;;0.60;0.60;;;;;;;19.75;43.51;100297.09;5053354;28;20202;-75
2023/04/23 09:20:55;;;;;;;0.70;0.70;;;;;;;19.74;44.51;100290.97;5091440;28;20202;-74
2023/04/23 09:23:23;;;;;;;0.60;0.60;;;;;;;19.05;43.26;100245.72;5092735;28;20221;-74
2023/04/23 09:25:51;;;;;;;0.60;0.60;;;;;;;19.26;43.92;100287.41;5092296;28;20202;-74
2023/04/23 09:28:18;;;;;;;0.60;0.60;;;;;;;19.19;44.30;100283.13;5092347;28;20191;-74
2023/04/23 09:30:45;;;;;;;0.70;0.70;;;;;;;19.46;44.64;100296.75;5052796;28;20606;-73
2023/04/23 09:33:13;;;;;;;0.60;0.60;;;;;;;19.69;43.47;100287.53;5092127;28;20202;-74
2023/04/23 09:35:42;;;;;;;0.60;0.60;;;;;;;19.28;44.09;100205.88;5089553;28;20202;-74
2023/04/23 09:38:09;;;;;;;0.60;0.60;;;;;;;19.66;45.74;100256.03;5091797;28;20202;-73
2023/04/23 09:40:37;;;;;;;0.50;0.50;;;;;;;19.98;44.44;100273.81;5091312;28;20198;-74
2023/04/23 09:43:06;;;;;;;0.52;0.52;;;;;;;20.13;43.27;100284.03;5091082;28;20225;-75
2023/04/23 09:45:35;;;;;;;0.50;0.50;;;;;;;20.19;44.87;100273.38;5090753;28;20316;-76
2023/04/23 09:48:01;;;;;;;0.60;0.60;;;;;;;20.31;44.55;100281.94;5091658;28;20259;-76
2023/04/23 09:50:35;;;;;;;0.70;0.70;;;;;;;20.16;42.45;100278.69;5088406;28;20205;-75
2023/04/23 09:53:03;;;;;;;0.68;0.68;;;;;;;20.29;42.84;100274.09;5084363;28;20218;-74
2023/04/23 09:55:34;;;;;;;0.63;0.63;;;;;;;20.24;43.03;100281.19;5083084;28;20201;-77
2023/04/23 09:58:01;;;;;;;0.60;0.60;;;;;;;20.42;43.33;100258.88;5082714;28;20209;-72
2023/04/23 10:00:33;;;;;;;0.60;0.60;;;;;;;20.64;43.23;100265.41;5089341;28;20198;-76
2023/04/23 10:03:00;;;;;;;0.60;0.60;;;;;;;20.42;43.93;100266.78;5085774;28;20217;-69
2023/04/23 10:05:27;;;;;;;1.33;1.33;;;;;;;20.01;42.43;100251.84;5090105;28;20240;-68
2023/04/23 10:07:55;;;;;;;0.70;0.70;;;;;;;20.46;41.95;100261.41;5080507;28;20203;-70
2023/04/23 10:10:22;;;;;;;0.60;0.60;;;;;;;20.51;42.44;100263.97;5089477;28;20294;-73
2023/04/23 10:12:51;;;;;;;0.57;0.57;;;;;;;20.55;43.85;100260.31;5090641;28;20228;-74
2023/04/23 10:15:18;;;;;;;1.20;1.15;;;;;;;20.12;43.43;100219.09;5085800;28;20283;-74
2023/04/23 10:17:47;;;;;;;0.50;0.50;;;;;;;20.11;43.88;100229.69;5079543;28;20203;-74
2023/04/23 10:20:14;;;;;;;2.83;1.60;;;;;;;20.18;44.03;100245.31;5082768;28;20198;-76
2023/04/23 10:22:45;;;;;;;0.60;0.60;;;;;;;20.33;43.98;100238.03;5090781;28;20194;-76
2023/04/23 10:25:13;;;;;;;0.70;0.70;;;;;;;19.89;43.36;100171.38;5090498;28;20198;-78
2023/04/23 10:27:41;;;;;;;0.50;0.50;;;;;;;20.15;43.08;100245.41;5090951;28;20194;-77
2023/04/23 10:30:10;;;;;;;0.50;0.50;;;;;;;20.24;44.17;100239.91;5090757;28;20214;-76
2023/04/23 10:32:38;;;;;;;2.35;2.15;;;;;;;20.44;43.61;100236.03;5088899;28;20222;-74
2023/04/23 10:35:08;;;;;;;0.60;0.60;;;;;;;20.30;46.29;100202.06;5080339;28;20209;-72
2023/04/23 10:37:35;;;;;;;0.60;0.60;;;;;;;20.58;43.58;100231.28;5089401;28;20194;-72
2023/04/23 10:40:10;;;;;;;0.60;0.60;;;;;;;20.76;43.04;100231.72;5075405;28;20242;-74
2023/04/23 10:42:38;;;;;;;0.60;0.60;;;;;;;20.22;42.94;100232.97;5075465;28;20264;-75
2023/04/23 10:45:15;;;;;;;0.80;0.80;;;;;;;19.84;42.91;100212.69;5069373;28;20288;-75
2023/04/23 10:47:43;;;;;;;0.85;0.85;;;;;;;19.75;44.28;100205.88;5082431;28;20202;-76
2023/04/23 10:50:26;;;;;;;0.60;0.60;;;;;;;19.98;44.54;100231.69;5089698;28;20287;-75
2023/04/23 10:52:53;;;;;;;0.60;0.60;;;;;;;19.89;44.04;100221.38;5082450;28;20230;-75
2023/04/23 10:55:21;;;;;;;0.60;0.60;;;;;;;19.78;45.02;100218.97;5089545;28;20229;-76
2023/04/23 10:58:02;;;;;;;0.60;0.60;;;;;;;19.73;45.09;100219.94;5088678;28;20214;-77
2023/04/23 11:00:41;;;;;;;0.60;0.60;;;;;;;19.54;45.01;100210.69;5061668;28;20198;-78
2023/04/23 11:03:27;;;;;;;0.60;0.60;;;;;;;19.54;45.08;100219.44;5074134;28;20259;-77
2023/04/23 11:05:55;;;;;;;0.52;0.52;;;;;;;19.69;45.79;100207.75;5090209;28;20225;-75
2023/04/23 11:08:22;;;;;;;1.05;1.05;;;;;;;19.73;46.01;100204.16;5056725;28;20225;-76
2023/04/23 11:10:56;;;;;;;0.60;0.60;;;;;;;19.80;45.15;100196.09;5077141;28;20202;-76
2023/04/23 11:13:24;;;;;;;0.60;0.60;;;;;;;19.92;45.08;100194.13;5091404;28;20253;-76
2023/04/23 11:16:23;;;;;;;0.60;0.60;;;;;;;20.32;43.26;100197.66;5094047;28;20637;-75
2023/04/23 11:19:02;;;;;;;0.57;0.57;;;;;;;19.73;43.34;100083.13;5074499;28;20201;-77
2023/04/23 11:21:59;;;;;;;0.60;0.60;;;;;;;20.31;42.96;100198.53;5090428;28;20206;-73
2023/04/23 11:24:27;;;;;;;1.75;1.65;;;;;;;20.26;43.25;100195.13;5073865;28;20277;-75